createdAt,value
2017-04-18T00:00:06.496Z,21.9
2017-04-18T00:00:47.248Z,21.79
2017-04-18T00:01:28.045Z,21.91
2017-04-18T00:02:08.734Z,21.92
2017-04-18T00:02:49.531Z,21.84
2017-04-18T00:03:30.237Z,21.92
2017-04-18T00:04:10.974Z,21.88
2017-04-18T00:04:51.810Z,21.84
2017-04-18T00:05:32.600Z,21.9
2017-04-18T00:06:13.331Z,21.88
2017-04-18T00:06:54.739Z,21.79
2017-04-18T00:07:35.445Z,21.84
2017-04-18T00:08:16.223Z,21.84
2017-04-18T00:08:56.923Z,21.91
2017-04-18T00:09:37.692Z,21.9
2017-04-18T00:10:18.451Z,21.99
2017-04-18T00:10:59.256Z,21.96
2017-04-18T00:11:39.946Z,21.88
2017-04-18T00:12:20.667Z,21.88
2017-04-18T00:13:01.387Z,21.9
2017-04-18T00:13:42.165Z,21.88
2017-04-18T00:14:22.930Z,21.91
2017-04-18T00:15:03.581Z,21.86
2017-04-18T00:15:44.290Z,21.92
2017-04-18T00:16:25.035Z,21.9
2017-04-18T00:17:05.778Z,21.86
2017-04-18T00:17:46.526Z,21.92
2017-04-18T00:18:27.297Z,21.91
2017-04-18T00:19:08.100Z,21.84
2017-04-18T00:19:48.868Z,21.99
2017-04-18T00:20:29.678Z,21.9
2017-04-18T00:21:10.450Z,22
2017-04-18T00:21:51.286Z,22
2017-04-18T00:22:32.011Z,22
2017-04-18T00:23:12.764Z,21.84
2017-04-18T00:23:53.535Z,21.94
2017-04-18T00:24:34.269Z,22
2017-04-18T00:25:15.042Z,21.98
2017-04-18T00:25:55.836Z,21.92
2017-04-18T00:26:36.582Z,21.91
2017-04-18T00:27:17.332Z,21.9
2017-04-18T00:27:58.056Z,21.96
2017-04-18T00:28:38.851Z,21.99
2017-04-18T00:29:19.581Z,21.88
2017-04-18T00:30:00.361Z,21.9
2017-04-18T00:30:41.011Z,21.84
2017-04-18T00:31:21.756Z,22.03
2017-04-18T00:32:02.526Z,21.96
2017-04-18T00:32:43.331Z,22
2017-04-18T00:33:24.061Z,21.83
2017-04-18T00:34:04.798Z,21.86
2017-04-18T00:34:45.563Z,21.94
2017-04-18T00:35:26.321Z,21.92
2017-04-18T00:36:07.032Z,21.88
2017-04-18T00:36:47.870Z,21.9
2017-04-18T00:37:28.563Z,21.92
2017-04-18T00:38:09.373Z,21.84
2017-04-18T00:38:50.191Z,21.91
2017-04-18T00:39:30.915Z,21.84
2017-04-18T00:40:12.663Z,21.88
2017-04-18T00:40:53.443Z,21.9
2017-04-18T00:41:34.311Z,21.86
2017-04-18T00:42:15.001Z,21.84
2017-04-18T00:42:55.694Z,21.94
2017-04-18T00:43:36.448Z,21.86
2017-04-18T00:44:17.143Z,21.92
2017-04-18T00:44:57.925Z,21.94
2017-04-18T00:45:38.687Z,21.94
2017-04-18T00:46:19.416Z,21.98
2017-04-18T00:47:00.147Z,22
2017-04-18T00:47:41.012Z,21.88
2017-04-18T00:48:21.862Z,21.98
2017-04-18T00:49:02.635Z,21.96
2017-04-18T00:49:43.381Z,21.92
2017-04-18T00:50:24.136Z,21.92
2017-04-18T00:51:04.833Z,21.88
2017-04-18T00:51:45.585Z,21.88
2017-04-18T00:52:26.370Z,21.94
2017-04-18T00:53:07.082Z,21.88
2017-04-18T00:53:47.825Z,21.9
2017-04-18T00:54:28.582Z,22
2017-04-18T00:55:09.320Z,22.02
2017-04-18T00:55:50.667Z,21.96
2017-04-18T00:56:30.800Z,21.99
2017-04-18T00:57:11.583Z,21.96
2017-04-18T00:57:52.362Z,21.88
2017-04-18T00:58:33.105Z,21.99
2017-04-18T00:59:13.870Z,21.94
2017-04-18T00:59:54.660Z,21.94
2017-04-18T01:00:35.343Z,21.98
2017-04-18T01:01:16.149Z,21.99
2017-04-18T01:01:56.960Z,22.02
2017-04-18T01:02:37.734Z,21.96
2017-04-18T01:03:18.426Z,21.94
2017-04-18T01:03:59.284Z,21.96
2017-04-18T01:04:39.971Z,22.05
2017-04-18T01:05:20.731Z,21.98
2017-04-18T01:06:01.517Z,21.94
2017-04-18T01:06:42.306Z,21.98
2017-04-18T01:07:23.061Z,21.99
2017-04-18T01:08:03.792Z,21.92
2017-04-18T01:08:44.445Z,21.99
2017-04-18T01:09:25.294Z,21.98
2017-04-18T01:10:06.184Z,21.92
2017-04-18T01:10:46.916Z,21.92
2017-04-18T01:11:27.684Z,21.98
2017-04-18T01:12:08.410Z,21.96
2017-04-18T01:12:49.125Z,21.96
2017-04-18T01:13:29.855Z,21.96
2017-04-18T01:14:10.569Z,22.02
2017-04-18T01:14:51.342Z,22
2017-04-18T01:15:31.994Z,21.88
2017-04-18T01:16:12.763Z,21.96
2017-04-18T01:16:53.536Z,21.99
2017-04-18T01:17:34.266Z,21.86
2017-04-18T01:18:15.073Z,21.91
2017-04-18T01:18:55.822Z,21.84
2017-04-18T01:19:36.562Z,21.9
2017-04-18T01:20:17.281Z,21.99
2017-04-18T01:20:57.955Z,21.9
2017-04-18T01:21:38.804Z,21.9
2017-04-18T01:22:19.475Z,21.9
2017-04-18T01:23:00.153Z,21.92
2017-04-18T01:23:40.882Z,22
2017-04-18T01:24:21.598Z,21.96
2017-04-18T01:25:02.428Z,21.92
2017-04-18T01:25:43.214Z,22.02
2017-04-18T01:26:23.932Z,21.94
2017-04-18T01:27:04.761Z,21.96
2017-04-18T01:27:45.481Z,21.92
2017-04-18T01:28:26.268Z,21.94
2017-04-18T01:29:06.995Z,22.02
2017-04-18T01:29:47.722Z,21.91
2017-04-18T01:30:28.440Z,21.94
2017-04-18T01:31:09.227Z,21.99
2017-04-18T01:31:49.990Z,22.03
2017-04-18T01:32:30.808Z,22.07
2017-04-18T01:33:11.545Z,22.1
2017-04-18T01:33:52.359Z,22.12
2017-04-18T01:34:33.032Z,22.07
2017-04-18T01:35:13.829Z,22
2017-04-18T01:35:54.529Z,22.09
2017-04-18T01:36:35.304Z,22.1
2017-04-18T01:37:16.040Z,22.02
2017-04-18T01:37:56.753Z,22.09
2017-04-18T01:39:57.072Z,22.1
2017-04-18T01:40:37.895Z,22.17
2017-04-18T01:41:18.628Z,22.14
2017-04-18T01:41:59.384Z,22.14
2017-04-18T01:42:40.215Z,22.1
2017-04-18T01:43:21.044Z,22.12
2017-04-18T01:44:01.865Z,22.1
2017-04-18T01:44:42.650Z,22.15
2017-04-18T01:45:23.424Z,22.17
2017-04-18T01:46:04.184Z,22.17
2017-04-18T01:46:44.891Z,22.18
2017-04-18T01:47:25.652Z,22.15
2017-04-18T01:48:06.326Z,22.14
2017-04-18T01:48:47.104Z,22.15
2017-04-18T01:49:27.885Z,22.15
2017-04-18T01:50:08.697Z,22.1
2017-04-18T01:50:49.537Z,22.18
2017-04-18T01:51:30.277Z,22.17
2017-04-18T01:52:11.078Z,22.12
2017-04-18T01:52:51.875Z,22.17
2017-04-18T01:53:32.620Z,22.14
2017-04-18T01:54:13.362Z,22.14
2017-04-18T01:54:54.086Z,22.12
2017-04-18T01:55:34.839Z,22.14
2017-04-18T01:56:15.612Z,22.07
2017-04-18T01:56:56.248Z,22.14
2017-04-18T01:57:36.994Z,22.09
2017-04-18T01:58:17.802Z,22.1
2017-04-18T01:58:58.538Z,22.14
2017-04-18T01:59:39.320Z,22.07
2017-04-18T02:00:19.992Z,22.09
2017-04-18T02:01:00.763Z,22.18
2017-04-18T02:01:41.513Z,22.12
2017-04-18T02:02:22.187Z,22.17
2017-04-18T02:03:02.938Z,22.15
2017-04-18T02:03:43.672Z,22.15
2017-04-18T02:04:24.397Z,22.18
2017-04-18T02:05:05.167Z,22.14
2017-04-18T02:05:45.896Z,22.22
2017-04-18T02:06:26.716Z,22.12
2017-04-18T02:07:07.425Z,22.2
2017-04-18T02:07:48.199Z,22.12
2017-04-18T02:08:28.932Z,22.12
2017-04-18T02:09:24.531Z,22.21
2017-04-18T02:10:05.298Z,22.21
2017-04-18T02:10:45.978Z,22.1
2017-04-18T02:11:26.746Z,22.12
2017-04-18T02:12:07.514Z,22.14
2017-04-18T02:12:48.284Z,22.18
2017-04-18T02:13:29.089Z,22.14
2017-04-18T02:14:09.793Z,22.18
2017-04-18T02:14:50.603Z,22.22
2017-04-18T02:15:31.328Z,22.17
2017-04-18T02:16:12.148Z,22.2
2017-04-18T02:16:52.892Z,22.18
2017-04-18T02:17:33.630Z,22.24
2017-04-18T02:18:14.342Z,22.2
2017-04-18T02:18:55.050Z,22.21
2017-04-18T02:19:35.804Z,22.17
2017-04-18T02:20:16.545Z,22.25
2017-04-18T02:20:57.274Z,22.2
2017-04-18T02:21:37.998Z,22.28
2017-04-18T02:22:18.786Z,22.28
2017-04-18T02:22:59.514Z,22.2
2017-04-18T02:23:40.250Z,22.24
2017-04-18T02:24:20.987Z,22.3
2017-04-18T02:25:01.783Z,22.22
2017-04-18T02:25:42.494Z,22.25
2017-04-18T02:26:23.200Z,22.28
2017-04-18T02:27:03.955Z,22.31
2017-04-18T02:27:44.665Z,22.31
2017-04-18T02:28:25.382Z,22.2
2017-04-18T02:29:06.094Z,22.22
2017-04-18T02:29:46.892Z,22.24
2017-04-18T02:30:27.662Z,22.28
2017-04-18T02:31:08.509Z,22.27
2017-04-18T02:31:49.249Z,22.28
2017-04-18T02:32:30.038Z,22.27
2017-04-18T02:33:10.762Z,22.25
2017-04-18T02:33:51.461Z,22.3
2017-04-18T02:34:32.302Z,22.3
2017-04-18T02:35:13.141Z,22.28
2017-04-18T02:35:53.909Z,22.25
2017-04-18T02:36:34.667Z,22.3
2017-04-18T02:37:15.377Z,22.28
2017-04-18T02:37:56.144Z,22.25
2017-04-18T02:38:36.907Z,22.28
2017-04-18T02:39:17.667Z,22.27
2017-04-18T02:39:58.433Z,22.33
2017-04-18T02:40:39.139Z,22.3
2017-04-18T02:41:19.889Z,22.33
2017-04-18T02:42:00.626Z,22.28
2017-04-18T02:42:41.340Z,22.28
2017-04-18T02:43:22.124Z,22.33
2017-04-18T02:44:02.842Z,22.27
2017-04-18T02:44:43.705Z,22.21
2017-04-18T02:45:24.457Z,22.3
2017-04-18T02:46:05.211Z,22.25
2017-04-18T02:46:46.029Z,22.25
2017-04-18T02:47:26.744Z,22.35
2017-04-18T02:48:07.443Z,22.28
2017-04-18T02:48:48.218Z,22.28
2017-04-18T02:49:28.999Z,22.33
2017-04-18T02:50:09.739Z,22.28
2017-04-18T02:50:50.497Z,22.36
2017-04-18T02:51:31.258Z,22.27
2017-04-18T02:52:12.035Z,22.28
2017-04-18T02:52:52.705Z,22.28
2017-04-18T02:53:33.530Z,22.3
2017-04-18T02:54:14.285Z,22.27
2017-04-18T02:54:55.097Z,22.33
2017-04-18T02:55:35.786Z,22.4
2017-04-18T02:56:16.547Z,22.3
2017-04-18T02:56:57.279Z,22.33
2017-04-18T02:57:38.016Z,22.36
2017-04-18T02:58:18.752Z,22.35
2017-04-18T02:58:59.517Z,22.37
2017-04-18T02:59:40.299Z,22.3
2017-04-18T03:00:21.094Z,22.31
2017-04-18T03:01:01.801Z,22.3
2017-04-18T03:01:42.594Z,22.33
2017-04-18T03:02:23.333Z,22.28
2017-04-18T03:03:04.130Z,22.35
2017-04-18T03:03:44.859Z,22.22
2017-04-18T03:04:25.534Z,22.33
2017-04-18T03:05:06.292Z,22.36
2017-04-18T03:05:46.983Z,22.39
2017-04-18T03:06:27.799Z,22.31
2017-04-18T03:07:08.599Z,22.36
2017-04-18T03:07:49.367Z,22.35
2017-04-18T03:08:30.140Z,22.33
2017-04-18T03:09:10.822Z,22.35
2017-04-18T03:09:51.585Z,22.36
2017-04-18T03:10:32.297Z,22.33
2017-04-18T03:11:13.065Z,22.45
2017-04-18T03:11:53.975Z,22.36
2017-04-18T03:12:34.689Z,22.42
2017-04-18T03:13:15.478Z,22.3
2017-04-18T03:13:56.235Z,22.33
2017-04-18T03:14:36.947Z,22.33
2017-04-18T03:15:17.774Z,22.33
2017-04-18T03:15:58.524Z,22.33
2017-04-18T03:16:39.344Z,22.35
2017-04-18T03:17:20.132Z,22.35
2017-04-18T03:18:00.856Z,22.31
2017-04-18T03:18:41.595Z,22.35
2017-04-18T03:19:22.318Z,22.42
2017-04-18T03:20:03.014Z,22.3
2017-04-18T03:20:43.766Z,22.36
2017-04-18T03:21:24.499Z,22.42
2017-04-18T03:22:05.250Z,22.3
2017-04-18T03:22:46.013Z,22.35
2017-04-18T03:23:26.757Z,22.37
2017-04-18T03:24:07.493Z,22.43
2017-04-18T03:24:48.198Z,22.37
2017-04-18T03:25:28.945Z,22.33
2017-04-18T03:26:09.790Z,22.39
2017-04-18T03:26:50.548Z,22.3
2017-04-18T03:27:31.326Z,22.31
2017-04-18T03:28:12.141Z,22.43
2017-04-18T03:28:52.926Z,22.39
2017-04-18T03:29:33.600Z,22.28
2017-04-18T03:30:14.350Z,22.31
2017-04-18T03:30:55.248Z,22.28
2017-04-18T03:31:36.020Z,22.31
2017-04-18T03:32:16.713Z,22.36
2017-04-18T03:32:57.475Z,22.24
2017-04-18T03:33:38.199Z,22.42
2017-04-18T03:34:18.966Z,22.35
2017-04-18T03:34:59.707Z,22.25
2017-04-18T03:35:40.382Z,22.3
2017-04-18T03:36:21.208Z,22.35
2017-04-18T03:37:02.007Z,22.25
2017-04-18T03:37:42.725Z,22.35
2017-04-18T03:38:23.548Z,22.33
2017-04-18T03:39:04.353Z,22.4
2017-04-18T03:39:59.843Z,22.35
2017-04-18T03:40:40.548Z,22.33
2017-04-18T03:41:21.286Z,22.33
2017-04-18T03:42:01.974Z,22.33
2017-04-18T03:42:42.701Z,22.35
2017-04-18T03:43:23.483Z,22.36
2017-04-18T03:44:04.253Z,22.33
2017-04-18T03:44:44.974Z,22.27
2017-04-18T03:45:25.851Z,22.36
2017-04-18T03:46:06.584Z,22.36
2017-04-18T03:46:47.363Z,22.39
2017-04-18T03:47:28.104Z,22.36
2017-04-18T03:48:08.841Z,22.36
2017-04-18T03:48:49.583Z,22.43
2017-04-18T03:49:30.349Z,22.45
2017-04-18T03:50:11.052Z,22.42
2017-04-18T03:50:51.845Z,22.39
2017-04-18T03:51:32.598Z,22.4
2017-04-18T03:52:13.392Z,22.37
2017-04-18T03:52:54.225Z,22.43
2017-04-18T03:53:34.991Z,22.42
2017-04-18T03:54:15.807Z,22.43
2017-04-18T03:54:56.484Z,22.43
2017-04-18T03:55:37.233Z,22.43
2017-04-18T03:56:17.984Z,22.39
2017-04-18T03:56:58.758Z,22.42
2017-04-18T03:57:39.521Z,22.4
2017-04-18T03:58:20.262Z,22.42
2017-04-18T03:59:00.994Z,22.39
2017-04-18T03:59:41.732Z,22.35
2017-04-18T04:00:22.460Z,22.35
2017-04-18T04:01:03.298Z,22.36
2017-04-18T04:01:44.073Z,22.37
2017-04-18T04:02:25.541Z,22.37
2017-04-18T04:03:06.333Z,22.47
2017-04-18T04:03:47.034Z,22.36
2017-04-18T04:04:27.735Z,22.46
2017-04-18T04:05:08.561Z,22.36
2017-04-18T04:05:49.258Z,22.33
2017-04-18T04:06:30.063Z,22.42
2017-04-18T04:07:10.765Z,22.3
2017-04-18T04:07:51.568Z,22.35
2017-04-18T04:08:32.295Z,22.4
2017-04-18T04:09:13.062Z,22.37
2017-04-18T04:09:53.787Z,22.37
2017-04-18T04:10:34.461Z,22.3
2017-04-18T04:11:15.264Z,22.39
2017-04-18T04:11:56.030Z,22.35
2017-04-18T04:12:37.546Z,22.35
2017-04-18T04:13:18.394Z,22.33
2017-04-18T04:13:59.171Z,22.35
2017-04-18T04:14:39.947Z,22.35
2017-04-18T04:15:20.664Z,22.31
2017-04-18T04:16:01.379Z,22.33
2017-04-18T04:16:42.155Z,22.36
2017-04-18T04:17:23.524Z,22.35
2017-04-18T04:18:04.329Z,22.35
2017-04-18T04:18:45.071Z,22.36
2017-04-18T04:19:25.854Z,22.33
2017-04-18T04:20:06.627Z,22.36
2017-04-18T04:20:47.949Z,22.37
2017-04-18T04:21:28.739Z,22.33
2017-04-18T04:22:09.511Z,22.36
2017-04-18T04:22:50.284Z,22.42
2017-04-18T04:23:31.047Z,22.33
2017-04-18T04:24:12.291Z,22.33
2017-04-18T04:24:53.553Z,22.39
2017-04-18T06:36:48.639Z,22.88
2017-04-18T06:37:30.503Z,22.85
2017-04-18T06:38:11.890Z,22.83
2017-04-18T06:38:52.664Z,22.95
2017-04-18T06:39:33.403Z,22.85
2017-04-18T06:40:14.139Z,23.02
2017-04-18T06:40:54.869Z,23.02
2017-04-18T06:41:35.689Z,23.1
2017-04-18T06:42:16.426Z,23.09
2017-04-18T06:42:57.210Z,23.17
2017-04-18T06:43:38.020Z,23.1
2017-04-18T06:44:18.820Z,23.07
2017-04-18T06:44:59.661Z,23.1
2017-04-18T06:45:40.399Z,23.13
2017-04-18T06:46:21.217Z,23.15
2017-04-18T06:47:01.928Z,23.19
2017-04-18T06:47:42.632Z,23.16
2017-04-18T06:48:23.425Z,23.16
2017-04-18T06:49:04.132Z,23.19
2017-04-18T06:49:44.883Z,23.13
2017-04-18T06:50:25.691Z,23.19
2017-04-18T06:51:06.513Z,23.27
2017-04-18T06:51:47.262Z,23.2
2017-04-18T06:52:28.045Z,23.22
2017-04-18T06:53:08.873Z,23.25
2017-04-18T06:53:49.623Z,23.23
2017-04-18T06:54:30.477Z,23.25
2017-04-18T06:55:11.176Z,23.28
2017-04-18T06:55:51.957Z,23.27
2017-04-18T06:56:32.707Z,23.31
2017-04-18T06:57:13.453Z,23.32
2017-04-18T06:57:54.257Z,23.31
2017-04-18T06:58:35.068Z,23.31
2017-04-18T06:59:15.819Z,23.27
2017-04-18T06:59:56.533Z,23.38
2017-04-18T07:00:37.281Z,23.36
2017-04-18T07:01:18.023Z,23.31
2017-04-18T07:01:58.847Z,23.38
2017-04-18T07:02:39.675Z,23.46
2017-04-18T07:03:20.530Z,23.4
2017-04-18T07:04:01.369Z,23.48
2017-04-18T07:04:42.139Z,23.42
2017-04-18T07:05:22.952Z,23.5
2017-04-18T07:06:03.766Z,23.42
2017-04-18T07:06:44.489Z,23.46
2017-04-18T07:07:25.858Z,23.5
2017-04-18T12:31:43.658Z,22.46
2017-04-18T12:33:46.234Z,22.43
2017-04-18T12:34:27.564Z,22.51
2017-04-18T12:35:07.694Z,22.46
2017-04-18T12:35:48.414Z,22.58
2017-04-18T12:36:29.201Z,22.46
2017-04-18T12:37:09.919Z,22.51
2017-04-18T12:37:50.703Z,22.51
2017-04-18T12:42:50.018Z,22.46
2017-04-18T12:43:30.844Z,22.47
2017-04-18T12:44:11.579Z,22.57
2017-04-18T12:47:48.080Z,22.45
2017-04-18T12:48:28.783Z,22.51
2017-04-18T12:49:09.592Z,22.52
2017-04-18T12:49:50.400Z,22.52
2017-04-18T12:50:31.199Z,22.45
2017-04-18T12:51:12.980Z,22.51
2017-04-18T12:51:53.686Z,22.54
2017-04-18T12:52:34.447Z,22.52
2017-04-18T12:53:15.252Z,22.55
2017-04-18T12:53:56.109Z,22.51
2017-04-18T12:54:36.902Z,22.47
2017-04-18T12:55:19.231Z,22.46
2017-04-18T12:57:20.352Z,22.55
2017-04-18T12:58:02.103Z,22.52
2017-04-18T12:58:43.964Z,22.52
2017-04-18T12:59:24.771Z,22.46
2017-04-18T13:01:40.238Z,22.45
2017-04-18T13:02:21.821Z,22.49
2017-04-18T13:03:03.326Z,22.51
2017-04-18T13:03:44.086Z,22.47
2017-04-18T13:04:24.842Z,22.46
2017-04-18T13:05:05.569Z,22.46
2017-04-18T13:05:46.388Z,22.46
2017-04-18T13:11:17.653Z,22.52
2017-04-18T13:11:58.471Z,22.49
2017-04-18T13:12:40.951Z,22.46
2017-04-18T13:13:21.894Z,22.45
2017-04-18T13:14:03.462Z,22.43
2017-04-18T13:14:43.453Z,22.4
2017-04-18T13:15:24.972Z,22.52
2017-04-18T13:17:39.712Z,22.51
2017-04-18T13:18:20.534Z,22.51
2017-04-18T13:19:03.378Z,22.47
2017-04-18T13:19:44.145Z,22.46
2017-04-18T13:20:24.955Z,22.52
2017-04-18T13:21:05.692Z,22.46
2017-04-18T13:21:46.487Z,22.45
2017-04-18T13:22:27.315Z,22.42
2017-04-18T13:23:08.103Z,22.43
2017-04-18T13:23:48.836Z,22.42
2017-04-18T13:24:29.555Z,22.51
2017-04-18T13:25:10.311Z,22.47
2017-04-18T13:27:25.866Z,22.52
2017-04-18T13:28:06.777Z,22.52
2017-04-18T13:28:47.519Z,22.47
2017-04-18T13:29:28.381Z,22.42
2017-04-18T13:30:10.495Z,22.46
2017-04-18T13:30:50.541Z,22.46
2017-04-18T13:31:32.503Z,22.47
2017-04-18T13:32:12.620Z,22.47
2017-04-18T13:32:54.290Z,22.51
2017-04-18T13:33:35.009Z,22.49
2017-04-18T13:34:15.774Z,22.46
2017-04-18T13:34:56.474Z,22.46
2017-04-18T13:35:37.339Z,22.49
2017-04-18T13:36:18.178Z,22.51
2017-04-18T13:36:59.598Z,22.51
2017-04-18T13:37:40.378Z,22.52
2017-04-18T13:38:21.142Z,22.46
2017-04-18T13:39:01.912Z,22.54
2017-04-18T13:39:42.694Z,22.52
2017-04-18T13:40:23.556Z,22.51
2017-04-18T13:41:04.573Z,22.51
2017-04-18T13:41:45.277Z,22.47
2017-04-18T13:42:25.975Z,22.47
2017-04-18T13:43:06.724Z,22.46
2017-04-18T13:43:47.598Z,22.46
2017-04-18T13:44:28.255Z,22.54
2017-04-18T13:45:09.073Z,22.55
2017-04-18T13:45:49.901Z,22.45
2017-04-18T13:46:30.646Z,22.55
2017-04-18T13:47:11.388Z,22.52
2017-04-18T13:47:52.665Z,22.49
2017-04-18T13:48:33.421Z,22.47
2017-04-18T13:49:14.184Z,22.54
2017-04-18T13:49:54.895Z,22.49
2017-04-18T13:50:35.676Z,22.49
2017-04-18T13:51:16.440Z,22.52
2017-04-18T13:51:57.301Z,22.51
2017-04-18T13:52:38.005Z,22.46
2017-04-18T13:53:18.776Z,22.51
2017-04-18T13:53:59.642Z,22.54
2017-04-18T13:54:40.469Z,22.49
2017-04-18T13:55:21.230Z,22.51
2017-04-18T13:56:01.950Z,22.51
2017-04-18T13:57:56.829Z,22.54
2017-04-18T13:58:37.568Z,22.51
2017-04-18T13:59:18.316Z,22.49
2017-04-18T13:59:59.121Z,22.46
2017-04-18T14:00:39.908Z,22.52
2017-04-18T14:01:21.326Z,22.57
2017-04-18T14:02:01.576Z,22.51
2017-04-18T14:02:42.385Z,22.54
2017-04-18T14:03:23.151Z,22.46
2017-04-18T14:04:04.899Z,22.45
2017-04-18T14:04:45.662Z,22.52
2017-04-18T14:05:26.428Z,22.46
2017-04-18T14:06:07.124Z,22.54
2017-04-18T14:06:48.463Z,22.52
2017-04-18T14:07:29.248Z,22.54
2017-04-18T14:08:09.998Z,22.52
2017-04-18T14:08:50.762Z,22.54
2017-04-18T14:09:31.563Z,22.51
2017-04-18T14:10:12.386Z,22.52
2017-04-18T14:10:53.120Z,22.51
2017-04-18T14:11:33.855Z,22.58
2017-04-18T14:12:14.688Z,22.61
2017-04-18T14:12:55.494Z,22.62
2017-04-18T14:13:36.333Z,22.73
2017-04-18T14:14:17.846Z,22.72
2017-04-18T14:14:57.860Z,22.76
2017-04-18T14:15:38.625Z,22.7
2017-04-18T14:16:19.374Z,22.68
2017-04-18T14:17:00.216Z,22.67
2017-04-18T14:17:41.059Z,22.73
2017-04-18T14:18:22.343Z,22.67
2017-04-18T14:19:02.491Z,22.68
2017-04-18T14:20:58.096Z,22.67
2017-04-18T14:21:38.827Z,22.64
2017-04-18T14:23:34.358Z,22.6
2017-04-18T14:25:14.053Z,22.73
2017-04-18T14:25:55.640Z,22.8
2017-04-18T14:26:37.528Z,22.79
2017-04-18T14:27:17.914Z,22.76
2017-04-18T14:28:00.277Z,22.76
2017-04-18T14:28:41.011Z,22.77
2017-04-18T14:29:22.672Z,22.76
2017-04-18T14:30:03.408Z,22.76
2017-04-18T14:30:44.215Z,22.77
2017-04-18T14:31:25.021Z,22.79
2017-04-18T14:32:06.551Z,22.76
2017-04-18T14:32:48.210Z,22.76
2017-04-18T14:33:29.032Z,22.77
2017-04-18T14:34:10.464Z,22.77
2017-04-18T14:34:51.314Z,22.86
2017-04-18T14:35:32.018Z,22.86
2017-04-18T14:36:12.753Z,22.79
2017-04-18T14:36:53.523Z,22.79
2017-04-18T14:37:34.323Z,22.82
2017-04-18T14:38:15.105Z,22.79
2017-04-18T14:38:56.392Z,22.85
2017-04-18T14:39:37.278Z,22.85
2017-04-18T14:40:17.991Z,22.8
2017-04-18T14:40:58.779Z,22.8
2017-04-18T14:41:39.502Z,22.82
2017-04-18T14:42:20.247Z,22.85
2017-04-18T14:43:00.995Z,22.85
2017-04-18T14:43:42.452Z,22.83
2017-04-18T14:44:23.221Z,22.83
2017-04-18T14:45:04.015Z,22.85
2017-04-18T14:45:44.839Z,22.82
2017-04-18T14:46:25.624Z,22.83
2017-04-18T14:47:06.426Z,22.83
2017-04-18T14:47:47.228Z,22.88
2017-04-18T14:48:28.056Z,22.91
2017-04-18T14:49:08.859Z,22.85
2017-04-18T14:49:49.663Z,22.83
2017-04-18T14:50:30.422Z,22.88
2017-04-18T14:51:11.224Z,22.8
2017-04-18T14:51:51.963Z,22.86
2017-04-18T14:52:32.688Z,22.85
2017-04-18T14:53:13.414Z,22.8
2017-04-18T14:53:54.779Z,22.88
2017-04-18T14:54:50.910Z,22.86
2017-04-18T14:55:31.664Z,22.85
2017-04-18T14:56:12.467Z,22.88
2017-04-18T14:56:53.235Z,22.85
2017-04-18T14:57:34.566Z,22.86
2017-04-18T14:58:15.322Z,22.83
2017-04-18T14:58:56.125Z,22.86
2017-04-18T14:59:36.821Z,22.91
2017-04-18T15:00:17.576Z,22.92
2017-04-18T16:03:39.935Z,22.85
2017-04-18T16:04:20.088Z,22.85
2017-04-18T16:05:00.768Z,22.9
2017-04-18T16:05:41.519Z,22.8
2017-04-18T16:06:22.251Z,22.88
2017-04-18T16:07:03.048Z,22.88
2017-04-18T16:07:43.873Z,22.85
2017-04-18T16:08:24.591Z,22.85
2017-04-18T16:09:05.473Z,22.85
2017-04-18T16:09:46.299Z,22.83
2017-04-18T16:10:27.137Z,22.9
2017-04-18T16:11:07.906Z,22.9
2017-04-18T16:11:48.698Z,22.85
2017-04-18T16:12:29.449Z,22.94
2017-04-18T16:13:10.234Z,23.1
2017-04-18T16:13:50.972Z,23.04
2017-04-18T16:14:32.580Z,23.02
2017-04-18T16:15:13.289Z,23.13
2017-04-18T16:15:55.150Z,23.1
2017-04-18T16:16:35.914Z,23.12
2017-04-18T16:17:17.385Z,23.09
2017-04-18T16:17:58.123Z,23.04
2017-04-18T16:18:38.984Z,23
2017-04-18T16:19:19.777Z,22.9
2017-04-18T16:20:00.569Z,22.82
2017-04-18T16:20:41.298Z,22.82
2017-04-18T16:21:22.000Z,22.86
2017-04-18T16:22:02.837Z,22.88
2017-04-18T16:22:43.516Z,22.82
2017-04-18T16:23:25.144Z,22.86
2017-04-18T16:24:05.939Z,22.82
2017-04-18T16:24:46.703Z,22.83
2017-04-18T16:25:27.465Z,22.82
2017-04-18T16:26:08.243Z,22.8
2017-04-18T16:26:49.003Z,22.8
2017-04-18T16:27:29.762Z,22.77
2017-04-18T16:28:10.542Z,22.79
2017-04-18T16:28:51.301Z,22.73
2017-04-18T16:29:32.969Z,22.76
2017-04-18T16:30:13.950Z,22.79
2017-04-18T16:30:53.712Z,22.76
2017-04-18T16:31:34.469Z,22.72
2017-04-18T16:32:15.247Z,22.77
2017-04-18T16:32:56.884Z,22.76
2017-04-18T16:33:37.615Z,22.72
2017-04-18T16:34:18.365Z,22.77
2017-04-18T16:34:59.226Z,22.75
2017-04-18T16:35:40.037Z,22.77
2017-04-18T16:36:20.755Z,22.75
2017-04-18T16:37:02.346Z,22.77
2017-04-18T16:37:43.216Z,22.73
2017-04-18T16:38:23.955Z,22.77
2017-04-18T16:39:04.666Z,22.72
2017-04-18T16:39:45.403Z,22.73
2017-04-18T16:40:26.161Z,22.77
2017-04-18T16:41:06.957Z,22.76
2017-04-18T16:41:47.688Z,22.76
2017-04-18T16:42:28.468Z,22.76
2017-04-18T16:43:09.249Z,22.76
2017-04-18T16:43:50.040Z,22.8
2017-04-18T16:44:31.654Z,22.76
2017-04-18T16:45:12.441Z,22.76
2017-04-18T16:45:53.258Z,22.77
2017-04-18T16:46:34.044Z,22.8
2017-04-18T16:47:15.468Z,22.77
2017-04-18T16:47:55.786Z,22.79
2017-04-18T16:48:36.510Z,22.79
2017-04-18T16:49:17.352Z,22.7
2017-04-18T16:49:58.067Z,22.77
2017-04-18T16:50:38.825Z,22.73
2017-04-18T16:51:19.660Z,22.77
2017-04-18T16:52:00.470Z,22.75
2017-04-18T16:52:41.267Z,22.72
2017-04-18T16:53:22.050Z,22.79
2017-04-18T16:54:02.795Z,22.73
2017-04-18T16:54:43.564Z,22.7
2017-04-18T16:55:24.359Z,22.79
2017-04-18T16:56:05.140Z,22.76
2017-04-18T16:56:45.885Z,22.77
2017-04-18T16:57:26.720Z,22.83
2017-04-18T16:58:07.530Z,22.76
2017-04-18T16:58:48.966Z,22.82
2017-04-18T16:59:29.068Z,22.73
2017-04-18T17:00:09.846Z,22.76
2017-04-18T17:00:50.611Z,22.77
2017-04-18T17:01:31.339Z,22.79
2017-04-18T17:02:12.969Z,22.82
2017-04-18T17:02:59.779Z,22.72
2017-04-18T17:03:40.549Z,22.77
2017-04-18T17:04:21.355Z,22.83
2017-04-18T17:05:02.085Z,22.79
2017-04-18T17:05:42.769Z,22.8
2017-04-18T17:06:23.593Z,22.77
2017-04-18T17:07:04.356Z,22.7
2017-04-18T17:07:45.585Z,22.76
2017-04-18T17:08:26.340Z,22.7
2017-04-18T17:09:07.965Z,22.76
2017-04-18T17:09:47.934Z,22.68
2017-04-18T17:10:28.738Z,22.7
2017-04-18T17:11:09.464Z,22.68
2017-04-18T17:11:50.974Z,22.72
2017-04-18T17:12:30.904Z,22.67
2017-04-18T17:13:11.711Z,22.68
2017-04-18T17:13:52.563Z,22.7
2017-04-18T17:14:33.357Z,22.73
2017-04-18T17:15:14.166Z,22.6
2017-04-18T17:15:54.911Z,22.68
2017-04-18T17:16:35.640Z,22.62
2017-04-18T17:17:16.397Z,22.7
2017-04-18T17:17:57.147Z,22.61
2017-04-18T17:18:37.910Z,22.6
2017-04-18T17:19:19.206Z,22.68
2017-04-18T17:20:00.686Z,22.61
2017-04-18T17:20:41.473Z,22.72
2017-04-18T17:21:22.222Z,22.68
2017-04-18T17:22:02.956Z,22.68
2017-04-18T17:22:43.741Z,22.67
2017-04-18T17:23:24.531Z,22.58
2017-04-18T17:24:05.298Z,22.68
2017-04-18T17:24:46.096Z,22.7
2017-04-18T17:25:27.716Z,22.6
2017-04-18T17:26:08.569Z,22.68
2017-04-18T17:26:49.346Z,22.65
2017-04-18T17:27:30.225Z,22.61
2017-04-18T17:28:11.985Z,22.72
2017-04-18T17:28:51.848Z,22.61
2017-04-18T17:29:33.596Z,22.64
2017-04-18T17:30:14.292Z,22.67
2017-04-18T17:30:55.814Z,22.67
2017-04-18T17:31:36.623Z,22.67
2017-04-18T17:32:17.339Z,22.64
2017-04-18T17:32:58.153Z,22.68
2017-04-18T17:33:39.522Z,22.64
2017-04-18T17:34:20.442Z,22.67
2017-04-18T17:36:36.506Z,22.72
2017-04-18T17:37:17.921Z,22.68
2017-04-18T17:37:58.687Z,22.62
2017-04-18T17:38:39.392Z,22.64
2017-04-18T17:39:20.203Z,22.67
2017-04-18T17:40:01.049Z,22.65
2017-04-18T17:40:42.748Z,22.68
2017-04-18T17:41:23.504Z,22.65
2017-04-18T17:42:04.203Z,22.68
2017-04-18T17:42:44.932Z,22.65
2017-04-18T17:43:25.743Z,22.67
2017-04-18T17:44:06.591Z,22.65
2017-04-18T17:44:47.348Z,22.62
2017-04-18T17:45:28.126Z,22.67
2017-04-18T17:46:08.872Z,22.64
2017-04-18T17:46:49.679Z,22.68
2017-04-18T17:47:30.485Z,22.65
2017-04-18T17:48:11.193Z,22.68
2017-04-18T17:48:52.100Z,22.64
2017-04-18T17:49:32.873Z,22.57
2017-04-18T17:50:13.691Z,22.7
2017-04-18T17:50:54.493Z,22.68
2017-04-18T17:51:35.249Z,22.64
2017-04-18T17:52:16.000Z,22.67
2017-04-18T17:52:56.763Z,22.67
2017-04-18T17:53:38.102Z,22.72